Date,TemperatureHighF,TemperatureAvgF,TemperatureLowF,DewpointHighF,DewpointAvgF,DewpointLowF,HumidityHigh,HumidityAvg,HumidityLow,PressureMaxIn,PressureMinIn,WindSpeedMaxMPH,WindSpeedAvgMPH,GustSpeedMaxMPH,PrecipitationSumIn
2013-1-1,78,70,63,65,61,58,91,73,56,30.19,30.04,15,6,31,0.00
2013-1-2,80,70,60,67,64,60,98,83,56,30.08,29.98,20,4,33,0.00
2013-1-3,81,72,65,68,66,64,98,84,56,30.12,30.01,70,5,167,0.00
2013-1-4,81,71,65,70,67,64,99,88,61,30.22,30.09,8,4,12,0.00
2013-1-5,75,68,65,69,66,64,98,93,79,30.24,30.15,45,5,46,0.00
2013-1-6,81,72,65,72,68,64,99,89,68,30.19,30.04,43,9,46,0.00
2013-1-7,73,69,66,71,68,65,99,96,86,30.15,30.06,10,5,15,0.00
2013-1-8,81,74,69,72,70,68,98,89,70,30.19,30.07,31,7,46,0.00
2013-1-9,80,76,72,72,70,69,97,83,72,30.27,30.15,23,10,48,0.00
2013-1-10,78,74,71,69,67,64,86,76,61,30.29,30.17,39,10,128,0.00
2013-1-11,79,74,69,70,68,66,92,80,69,30.25,30.14,33,7,45,0.00
2013-1-12,79,74,68,69,67,66,93,79,63,30.17,30.08,70,7,72,0.00
2013-1-13,80,73,68,68,66,63,94,76,61,30.12,30.06,70,8,72,0.00
2013-1-14,79,72,65,67,65,63,95,79,60,30.16,30.10,14,5,32,0.00
2013-1-15,78,72,67,69,66,64,97,81,64,30.13,30.04,18,6,46,0.00
2013-1-16,80,72,64,69,67,63,98,84,63,30.10,30.00,30,6,104,0.00
2013-1-17,80,71,61,70,66,55,98,84,68,30.08,29.96,20,8,44,0.00
2013-1-18,71,63,52,58,54,47,82,71,62,30.22,30.08,74,11,74,0.00
2013-1-19,69,66,64,68,64,57,99,91,66,30.21,30.08,12,4,39,0.00
2013-1-20,79,69,62,68,63,-100,100,89,64,30.13,30.00,12,4,18,0.00
2013-1-21,80,71,65,71,67,64,98,88,65,30.06,29.95,11,4,40,0.00
2013-1-22,75,66,61,64,59,53,98,78,59,30.20,29.99,17,9,35,0.00
2013-1-23,73,64,58,59,56,53,92,74,50,30.29,30.19,54,8,54,0.00
2013-1-24,74,64,56,56,53,42,94,70,41,30.28,30.18,10,6,52,0.00
2013-1-25,75,64,55,61,56,53,96,79,53,30.27,30.17,35,6,67,0.00
2013-1-26,78,66,55,62,58,52,98,78,46,30.24,30.15,9,4,15,0.00
2013-1-27,77,69,60,62,59,57,96,74,52,30.28,30.18,11,6,31,0.00
2013-1-28,79,73,68,67,63,60,85,72,56,30.30,30.21,14,8,41,0.00
2013-1-29,78,72,65,69,66,64,97,83,68,30.23,30.11,14,7,56,0.00
2013-1-30,79,73,68,67,65,63,85,73,63,30.12,29.95,18,10,29,0.00
2013-1-31,65,62,55,62,54,44,97,73,57,30.17,30.05,15,8,23,0.00
2013-2-1,71,60,51,56,49,41,90,66,54,30.26,30.15,15,10,25,0.00
2013-2-2,73,62,52,57,50,41,92,67,45,30.25,30.11,39,7,45,0.00
2013-2-3,72,62,54,56,50,-100,96,72,31,30.16,30.06,43,11,48,0.00
2013-2-4,73,60,48,58,48,-100,96,73,38,30.13,30.01,45,5,46,0.00
2013-2-5,78,66,54,63,58,53,98,79,46,30.07,29.99,45,6,49,0.00
2013-2-6,80,68,60,66,62,59,99,81,59,30.10,30.01,26,4,44,0.00
2013-2-7,81,71,62,66,64,60,97,78,52,30.07,29.93,22,6,47,0.00
2013-2-8,81,71,64,69,66,63,98,85,60,30.02,29.90,11,6,18,0.00
2013-2-9,78,69,62,66,63,60,99,81,58,30.16,30.01,13,8,21,0.00
2013-2-10,73,70,65,62,61,58,86,73,66,30.25,30.14,16,9,24,0.00
2013-2-11,78,70,62,65,63,60,95,78,64,30.20,30.10,14,7,21,0.00
2013-2-12,84,72,62,69,65,62,98,81,49,30.11,29.95,36,7,64,0.00
2013-2-13,85,75,66,71,68,65,98,82,56,30.00,29.88,17,8,25,0.00
2013-2-14,79,68,62,71,67,61,98,94,75,30.00,29.84,22,7,44,0.00
2013-2-15,70,65,62,67,64,61,98,95,83,30.02,29.93,12,5,45,0.00
2013-2-16,70,64,55,63,57,46,99,79,49,30.07,29.87,20,10,36,0.00
2013-2-17,57,51,44,47,32,-100,75,51,29,30.30,30.07,20,12,34,0.00
2013-2-18,67,58,46,56,45,34,75,62,48,30.31,30.20,15,9,60,0.00
2013-2-19,78,68,55,66,60,54,96,76,59,30.21,30.07,13,7,45,0.00
2013-2-20,78,69,62,66,64,59,99,83,54,30.11,30.00,25,6,66,0.00
2013-2-21,80,71,62,69,65,62,99,82,61,30.08,29.98,10,5,17,0.00
2013-2-22,80,74,67,70,69,65,95,84,70,30.09,30.01,14,9,42,0.00
2013-2-23,82,73,70,72,70,68,97,90,71,30.05,29.90,12,7,34,0.00
2013-2-24,86,76,69,72,70,67,99,83,53,29.99,29.89,10,6,16,0.00
2013-2-25,84,75,68,73,70,67,98,86,61,29.91,29.80,13,6,21,0.00
2013-2-26,84,77,72,72,70,68,96,81,62,29.88,29.79,19,10,30,0.00
2013-2-27,75,69,63,74,65,61,97,88,65,29.96,29.86,11,6,41,0.00
2013-2-28,68,63,59,63,55,49,96,75,51,30.00,29.91,13,7,21,0.00
2013-3-1,63,61,58,58,52,48,84,71,59,29.98,29.90,11,7,17,0.00
2013-3-2,64,57,52,50,43,36,75,59,44,30.03,29.95,20,11,37,0.00
2013-3-3,60,54,50,47,42,39,86,67,50,30.14,29.96,15,9,43,0.00
2013-3-4,68,53,43,49,39,32,93,61,27,30.21,30.11,16,7,26,0.00
2013-3-5,75,62,49,57,53,47,96,74,47,30.18,30.07,52,6,73,0.00
2013-3-6,75,63,52,62,52,34,97,71,35,30.09,29.94,17,10,29,0.00
2013-3-7,70,57,46,56,45,37,96,65,40,30.18,30.07,59,7,62,0.00
2013-3-8,75,61,50,55,50,43,97,72,31,30.20,30.09,37,6,83,0.00
2013-3-9,74,63,53,58,54,51,97,75,50,30.18,30.09,48,7,55,0.00
2013-3-10,74,68,58,60,56,53,94,66,50,30.16,30.06,14,9,23,0.00
2013-3-11,76,70,65,62,60,58,91,69,53,30.11,29.95,40,8,104,0.00
2013-3-12,79,72,65,68,64,61,91,78,65,29.99,29.90,16,8,89,0.00
2013-3-13,73,65,56,65,55,45,95,72,40,30.11,29.97,54,9,101,0.00
2013-3-14,70,60,52,55,47,40,96,66,37,30.20,30.08,54,12,79,0.00
2013-3-15,72,60,50,55,49,45,88,69,42,30.24,30.14,32,7,48,0.00
2013-3-16,75,64,53,58,54,51,98,74,45,30.19,30.08,48,8,62,0.00
2013-3-17,76,66,57,62,59,57,98,78,53,30.14,30.02,43,8,57,0.00
2013-3-18,79,70,62,70,65,61,98,84,64,30.07,29.95,16,7,32,0.00
2013-3-19,78,71,67,69,67,65,97,86,65,30.00,29.82,19,6,50,0.00
2013-3-20,81,72,64,69,65,57,99,80,54,29.97,29.80,18,5,41,0.00
2013-3-21,72,66,58,62,54,43,96,69,35,29.94,29.83,39,10,63,0.00
2013-3-22,75,67,55,69,60,53,96,79,58,30.00,29.89,13,6,31,0.00
2013-3-23,87,77,69,73,70,67,98,81,52,29.98,29.79,14,6,23,0.00
2013-3-24,87,78,71,73,71,68,97,81,57,29.88,29.68,24,12,40,0.00
2013-3-25,75,72,64,73,61,45,97,72,41,29.98,29.74,15,8,25,0.00
2013-3-26,64,59,52,47,42,37,66,52,39,30.20,29.98,17,13,28,0.00
2013-3-27,67,56,45,50,42,37,90,61,38,30.25,30.16,14,8,21,0.00
2013-3-28,72,59,47,51,45,36,92,64,33,30.26,30.16,11,6,18,0.00
2013-3-29,73,62,51,55,50,46,91,66,43,30.28,30.19,11,7,21,0.00
2013-3-30,74,65,54,57,53,49,96,68,42,30.25,30.15,48,6,48,0.00
2013-3-31,80,69,56,65,60,-100,98,77,54,30.18,30.03,14,7,32,0.00
2013-4-1,85,74,65,70,66,62,98,78,46,30.05,29.93,46,9,57,0.00
2013-4-2,84,72,65,67,66,63,99,81,51,30.07,29.98,46,7,53,0.00
2013-4-3,82,74,66,69,67,65,97,79,58,30.06,29.98,21,7,68,0.00
2013-4-4,84,74,68,72,69,67,97,84,66,30.04,29.90,15,8,36,0.00
2013-4-5,71,68,65,70,66,63,98,93,86,29.99,29.82,43,8,56,0.00
2013-4-6,77,67,58,65,61,57,96,80,59,30.07,29.90,35,9,53,0.00
2013-4-7,77,72,66,63,62,60,88,71,62,30.13,30.02,12,8,20,0.00
2013-4-8,80,71,60,65,62,58,97,73,46,30.12,30.04,10,5,18,0.00
2013-4-9,79,72,66,69,66,63,97,80,59,30.14,30.04,14,7,22,0.00
2013-4-10,82,75,69,71,69,66,93,81,67,30.10,29.98,14,8,31,0.00
2013-4-11,83,77,73,73,71,70,90,80,68,30.01,29.89,17,12,81,0.00
2013-4-12,86,79,76,76,73,70,94,82,64,29.94,29.85,49,11,68,0.00
2013-4-13,84,75,70,74,72,69,97,90,71,29.96,29.87,41,5,60,0.00
2013-4-14,85,78,71,75,73,70,99,84,64,29.96,29.89,14,8,30,0.00
2013-4-15,89,77,69,76,73,69,99,88,63,30.05,29.93,14,6,24,0.00
2013-4-16,84,76,70,76,72,70,99,87,71,30.12,30.02,13,6,42,0.00
2013-4-17,82,76,70,71,68,66,94,78,60,30.11,30.02,11,6,47,0.00
2013-4-18,84,78,71,73,70,67,95,78,63,30.06,29.97,13,8,44,0.00
2013-4-19,86,80,76,74,72,69,92,75,59,30.04,29.95,17,10,32,0.00
2013-4-20,89,77,72,75,72,67,98,84,49,30.08,29.95,19,6,28,0.00
2013-4-21,82,76,70,73,71,70,98,85,69,30.09,29.97,14,7,21,0.00
2013-4-22,84,74,70,72,70,68,97,87,59,30.04,29.92,48,8,66,0.00
2013-4-23,81,74,67,69,66,62,98,77,57,30.09,29.95,35,11,58,0.00
2013-4-24,81,74,65,66,63,60,95,69,55,30.13,30.03,29,7,54,0.00
2013-4-25,81,74,66,66,63,60,92,68,50,30.19,30.07,12,6,19,0.00
2013-4-26,82,73,64,66,64,62,97,74,56,30.21,30.11,15,7,22,0.00
2013-4-27,80,75,65,67,64,61,92,69,53,30.20,30.08,15,8,26,0.00
2013-4-28,81,76,71,66,62,-100,74,65,53,30.11,29.99,14,9,40,0.00
2013-4-29,82,75,67,71,67,63,96,77,61,30.02,29.93,71,10,72,0.00
2013-4-30,82,74,69,72,70,68,98,87,64,29.99,29.92,45,5,56,0.00
2013-5-1,83,74,69,73,70,68,99,89,65,29.98,29.91,40,7,65,0.00
2013-5-2,78,70,67,73,69,66,99,95,81,29.94,29.77,22,8,44,0.00
2013-5-3,85,74,67,71,69,67,99,86,57,29.81,29.67,17,6,48,0.00
2013-5-4,85,75,68,70,68,66,98,80,55,29.79,29.68,44,10,72,0.00
2013-5-5,78,72,66,67,64,54,97,76,43,29.92,29.75,21,8,72,0.00
2013-5-6,81,71,61,67,62,60,97,75,52,30.01,29.91,20,5,49,0.00
2013-5-7,82,72,61,67,61,58,95,71,46,30.05,29.97,56,11,70,0.00
2013-5-8,84,73,62,67,61,58,97,70,41,30.13,30.03,36,5,57,0.00
2013-5-9,86,75,64,74,67,62,95,77,53,30.13,30.05,34,6,57,0.00
2013-5-10,87,78,72,75,70,-100,98,80,55,30.12,30.00,12,5,34,0.00
2013-5-11,87,78,73,77,74,71,99,86,63,30.06,29.97,21,7,52,0.00
2013-5-12,88,77,71,75,71,-100,98,84,56,30.05,29.94,17,6,54,0.00
2013-5-13,84,76,71,72,70,66,99,81,56,30.08,29.98,23,7,55,0.00
2013-5-14,80,74,67,67,62,57,91,68,48,30.17,30.06,27,8,68,0.00
2013-5-15,80,73,64,66,62,60,92,69,51,30.18,30.08,39,8,45,0.00
2013-5-16,82,67,63,67,40,-100,96,69,51,30.11,30.02,11,6,47,0.00
2013-5-17,85,75,67,74,62,-100,97,82,59,30.07,30.00,43,8,52,0.00
2013-5-18,84,77,71,75,72,69,98,83,68,30.08,30.01,13,6,20,0.00
2013-5-19,85,78,70,72,70,67,98,77,56,30.08,29.98,11,6,18,0.00
2013-5-20,77,74,70,74,71,67,97,91,82,30.06,29.96,15,6,39,0.00
2013-5-21,82,75,69,74,70,66,98,85,65,30.05,29.91,13,7,22,0.00
2013-5-22,86,76,69,75,72,68,97,88,64,29.95,29.88,21,5,38,0.00
2013-5-23,90,80,72,76,72,67,99,80,47,30.00,29.89,33,6,59,0.00
2013-5-24,91,82,74,77,73,66,99,77,48,30.04,29.94,33,8,49,0.00
2013-5-25,84,79,74,75,69,65,97,73,56,30.15,30.03,15,9,28,0.00
2013-5-26,83,76,67,68,65,63,92,69,56,30.16,30.09,14,8,31,0.00
2013-5-27,83,77,69,72,69,64,94,77,67,30.14,30.06,14,10,26,0.00
2013-5-28,81,77,73,74,72,70,93,84,72,30.10,30.03,16,10,28,0.00
2013-5-29,80,75,71,74,71,69,97,89,73,30.09,30.02,32,8,45,0.00
2013-5-30,81,77,71,74,72,67,93,82,74,30.07,29.99,24,14,37,0.00
2013-5-31,82,78,74,75,73,71,96,85,74,30.06,30.00,17,11,27,0.00
2013-6-1,83,76,73,76,74,73,98,93,77,30.03,29.96,32,5,32,0.00
2013-6-2,88,79,72,76,73,-100,99,84,62,30.00,29.92,31,4,39,0.00
2013-6-3,85,78,74,76,74,73,98,89,71,30.03,29.91,12,4,32,0.00
2013-6-4,84,78,74,76,75,72,99,89,69,30.05,29.96,8,4,13,0.00
2013-6-5,83,80,78,77,76,74,91,87,79,30.02,29.90,10,6,17,0.00
2013-6-6,87,79,73,79,75,71,98,87,70,29.92,29.77,20,12,40,0.00
2013-6-7,87,77,74,78,74,73,98,91,68,29.99,29.84,13,7,22,0.00
2013-6-8,85,77,74,79,75,74,99,93,79,30.11,29.97,11,5,18,0.00
2013-6-9,85,81,75,77,75,73,97,81,67,30.12,30.04,13,8,21,0.00
2013-6-10,86,82,79,77,76,74,90,80,70,30.10,30.02,11,8,21,0.00
2013-6-11,85,80,74,78,77,73,96,88,72,30.10,30.01,12,5,25,0.00
2013-6-12,87,79,72,77,76,70,98,91,69,30.08,30.02,10,3,33,0.00
2013-6-13,86,79,76,77,75,73,99,87,66,30.06,29.95,13,4,21,0.00
2013-6-14,90,80,76,76,74,71,98,81,56,29.98,29.88,13,6,51,0.00
2013-6-15,91,82,76,77,74,70,97,79,50,30.06,29.93,17,5,57,0.00
2013-6-16,89,82,76,77,75,73,97,79,59,30.10,30.02,10,5,46,0.00
2013-6-17,89,83,77,77,76,74,95,78,62,30.09,30.01,12,6,19,0.00
2013-6-18,91,84,78,78,76,73,95,77,60,30.07,29.98,11,6,22,0.00
2013-6-19,90,83,77,78,76,73,96,79,62,30.04,29.98,12,6,53,0.00
2013-6-20,90,82,75,78,74,69,96,77,58,30.08,30.02,11,5,50,0.00
2013-6-22,88,85,80,75,73,72,83,68,59,30.09,30.03,11,8,20,0.00
2013-6-23,88,82,77,76,74,72,94,76,62,30.11,30.04,14,8,21,0.00
2013-6-24,87,82,77,75,74,72,90,75,62,30.15,30.07,13,8,22,0.00
2013-6-25,87,81,76,76,75,73,93,80,66,30.12,30.03,12,7,33,0.00
2013-6-26,89,82,77,77,75,73,96,81,60,30.07,30.00,13,6,21,0.00
2013-6-27,88,81,76,77,76,73,98,84,66,30.05,29.95,9,4,39,0.00
2013-6-28,90,81,72,78,75,71,99,84,61,29.99,29.85,11,4,18,0.00
2013-6-29,91,80,74,78,75,73,99,86,55,29.93,29.82,12,4,21,0.00
2013-6-30,88,79,74,77,75,72,97,88,64,29.94,29.84,14,7,23,0.00
2013-7-1,88,80,75,77,75,72,96,85,67,30.03,29.91,17,8,30,0.00
2013-7-2,87,82,76,78,76,71,96,84,70,30.11,29.98,14,7,22,0.00
2013-7-3,87,81,77,78,76,73,96,83,68,30.12,30.04,17,9,28,0.00
2013-7-4,87,82,75,76,75,73,97,80,66,30.16,30.07,17,9,28,0.00
2013-7-5,85,79,74,77,76,73,98,89,76,30.14,30.06,14,7,35,0.00
2013-7-6,86,81,79,76,74,73,90,79,68,30.12,30.04,16,9,33,0.00
2013-7-7,86,82,77,76,75,73,92,79,67,30.10,30.03,15,8,25,0.00
2013-7-8,88,80,76,75,72,-100,93,79,57,30.14,30.08,12,6,19,0.00
2013-7-9,84,79,75,75,74,72,95,83,68,30.14,30.05,13,5,44,0.00
2013-7-10,84,76,72,75,70,-100,96,85,72,30.09,30.00,9,5,40,0.00
2013-7-11,90,81,75,77,75,72,98,84,56,30.05,29.95,12,4,18,0.00
2013-7-12,89,80,75,77,75,73,98,86,61,29.97,29.90,12,4,22,0.00
2013-7-13,86,76,73,76,73,71,98,91,67,30.03,29.92,13,5,29,0.00
2013-7-14,88,77,72,75,73,72,98,88,61,30.10,29.99,14,6,23,0.00
2013-7-15,87,79,72,76,73,71,99,83,60,30.10,30.02,13,6,21,0.00
2013-7-16,82,77,71,74,72,70,98,85,67,30.15,30.06,20,8,40,0.00
2013-7-17,80,76,73,75,73,72,97,91,79,30.16,30.06,42,6,45,0.00
2013-7-18,85,77,72,76,74,71,98,90,74,30.13,30.07,11,6,16,0.00
2013-7-19,86,80,73,78,75,73,99,87,71,30.15,30.07,12,6,18,0.00
2013-7-20,87,80,76,79,77,73,97,89,77,30.14,30.06,30,7,57,0.00
2013-7-21,89,80,76,79,76,72,98,90,68,30.18,30.08,13,4,69,0.00
2013-7-22,90,82,75,77,76,73,98,81,58,30.18,30.09,10,5,17,0.00
2013-7-23,92,83,77,78,76,71,98,79,50,30.14,29.99,11,5,49,0.00
2013-7-24,91,83,77,77,74,70,96,76,54,30.04,29.92,20,8,69,0.00
2013-7-25,90,83,77,77,75,72,95,77,60,30.03,29.93,11,7,44,0.00
2013-7-26,90,82,78,78,76,73,95,83,61,30.03,29.95,18,7,57,0.00
2013-7-27,89,79,74,77,76,74,98,90,64,30.01,29.94,19,4,63,0.00
2013-7-28,84,78,73,78,75,72,98,91,77,30.08,29.96,11,4,64,0.00
2013-7-29,89,82,76,78,76,75,98,85,67,30.15,30.04,13,5,19,0.00
2013-7-30,88,83,75,79,77,73,96,83,67,30.18,30.10,14,7,56,0.00
2013-7-31,88,83,77,78,76,74,96,80,64,30.13,30.03,14,7,22,0.00
2013-8-1,87,82,78,77,75,73,92,78,63,30.08,29.96,14,7,58,0.00
2013-8-2,89,80,76,76,74,73,98,82,60,30.07,29.94,9,5,15,0.00
2013-8-3,85,78,71,78,75,70,97,90,74,30.14,30.04,9,4,29,0.00
2013-8-4,92,81,76,78,76,73,97,83,59,30.13,30.00,16,4,38,0.00
2013-8-5,90,81,76,79,76,73,98,87,65,30.05,29.96,13,6,20,0.00
2013-8-6,93,81,76,79,76,73,99,85,55,30.00,29.90,11,4,53,0.00
2013-8-7,89,83,77,78,76,75,99,81,64,29.98,29.92,13,6,37,0.00
2013-8-8,88,84,80,77,75,73,86,76,60,30.02,29.94,14,9,23,0.00
2013-8-9,88,82,79,77,74,70,89,79,64,30.07,29.96,14,8,24,0.00
2013-8-10,89,83,78,77,76,74,93,79,61,30.12,30.04,12,7,21,0.00
2013-8-11,90,84,79,77,76,75,91,77,63,30.13,30.06,11,7,20,0.00
2013-8-12,89,82,76,77,75,73,96,79,61,30.11,30.02,11,6,18,0.00
2013-8-13,91,82,77,78,73,-100,98,78,55,30.05,29.95,12,5,45,0.00
2013-8-14,91,82,76,78,73,-100,98,78,54,30.02,29.93,18,5,47,0.00
2013-8-15,88,73,79,78,58,-100,93,78,68,30.06,29.96,8,4,47,0.00
2013-8-16,90,80,77,79,72,-100,96,80,65,30.05,29.98,10,5,53,0.00
2013-8-17,89,84,79,79,78,74,96,81,64,30.08,30.00,13,7,38,0.00
2013-8-18,89,82,79,79,74,-100,91,78,68,30.07,29.99,15,8,25,0.00
2013-8-19,89,77,79,78,58,-100,97,80,64,30.07,29.96,13,7,28,0.00
2013-8-20,89,82,76,77,73,-100,95,78,63,30.05,29.98,14,8,21,0.00
2013-8-21,87,81,77,78,77,75,98,87,70,30.07,29.99,15,8,25,0.00
2013-8-22,89,83,76,78,77,74,96,81,67,30.06,29.95,13,7,23,0.00
2013-8-23,89,82,77,78,76,75,97,85,66,30.01,29.94,13,5,24,0.00
2013-8-24,91,83,74,78,76,72,98,81,59,30.11,29.97,12,5,36,0.00
2013-8-25,86,78,75,77,72,-100,98,85,69,30.15,30.03,10,5,44,0.00
2013-8-26,86,78,71,78,75,70,98,89,69,30.12,30.02,14,4,41,0.00
2013-8-27,84,76,73,76,74,72,99,93,67,30.05,29.99,7,4,12,0.00
2013-8-28,87,82,76,76,74,72,96,79,64,30.04,29.96,12,6,41,0.00
2013-8-29,89,81,73,77,75,70,98,81,61,30.04,29.94,11,5,17,0.00
2013-8-30,91,83,76,77,75,72,98,80,53,30.01,29.91,11,4,38,0.00
2013-8-31,89,80,74,78,75,72,97,84,58,30.00,29.92,13,5,19,0.00
2013-9-1,89,79,74,78,73,-100,99,86,60,30.01,29.94,10,3,47,0.00
2013-9-2,91,79,73,78,75,73,99,90,57,30.06,29.95,10,3,42,0.00
2013-9-3,90,80,73,78,75,72,99,84,61,30.04,29.95,10,3,33,0.00
2013-9-4,86,81,77,79,77,76,98,89,74,30.08,29.96,22,5,45,0.00
2013-9-5,90,83,78,78,77,75,97,83,64,30.08,30.01,10,6,19,0.00
2013-9-6,90,83,78,79,77,74,98,83,60,30.05,29.94,25,5,64,0.00
2013-9-7,85,78,73,79,75,71,98,91,75,29.99,29.92,19,5,55,0.00
2013-9-8,88,77,73,77,73,-100,99,89,67,29.96,29.88,8,3,14,0.00
2013-9-9,87,80,73,77,74,72,98,84,63,30.02,29.91,13,6,62,0.00
2013-9-10,86,80,75,77,75,72,97,84,70,30.06,29.97,14,7,23,0.00
2013-9-11,81,78,73,76,75,72,98,90,80,30.08,29.99,16,6,44,0.00
2013-9-12,84,79,75,77,76,73,99,90,71,30.03,29.92,7,3,12,0.00
2013-9-13,90,81,75,77,75,74,99,83,57,29.93,29.83,8,4,13,0.00
2013-9-14,90,83,76,78,75,72,99,78,56,29.99,29.85,11,5,16,0.00
2013-9-15,86,78,73,78,73,-100,98,88,75,30.07,29.95,13,4,33,0.00
2013-9-16,84,78,73,78,76,73,99,94,80,30.07,30.00,12,6,21,0.00
2013-9-17,80,78,74,76,75,74,99,91,83,30.07,29.95,11,6,17,0.00
2013-9-18,78,76,74,75,74,73,98,94,87,30.04,29.95,8,4,14,0.00
2013-9-19,87,79,73,77,75,72,99,87,70,30.04,29.95,14,6,22,0.00
2013-9-20,86,79,72,73,72,69,97,79,57,30.02,29.93,12,6,55,0.00
2013-9-21,87,79,72,74,73,71,96,81,62,29.94,29.80,10,4,41,0.00
2013-9-22,90,80,75,78,72,-100,98,80,56,29.89,29.79,12,5,22,0.00
2013-9-23,86,80,77,78,77,76,99,92,74,30.00,29.88,19,4,52,0.00
2013-9-24,91,80,74,80,76,72,99,86,62,30.00,29.90,12,6,27,0.00
2013-9-25,87,80,74,79,75,71,98,84,58,29.94,29.83,19,7,51,0.00
2013-9-26,87,80,77,79,77,75,97,90,72,29.89,29.82,16,8,87,0.00
2013-9-27,88,80,74,77,74,68,99,83,51,29.94,29.85,13,6,47,0.00
2013-9-28,86,78,73,76,73,71,98,85,64,29.98,29.89,12,6,44,0.00
2013-9-29,87,77,71,74,69,-100,98,80,59,29.99,29.90,10,5,16,0.00
2013-9-30,87,79,71,73,72,70,98,80,60,30.02,29.92,10,4,15,0.00
2013-10-1,80,79,78,73,72,71,84,78,76,30.05,30.02,7,6,13,0.00
2013-10-2,86,80,76,74,72,71,89,77,64,30.06,29.98,13,8,23,0.00
2013-10-3,86,80,76,75,74,72,94,80,65,30.07,29.96,12,6,61,0.00
2013-10-4,88,79,73,74,72,70,97,80,58,30.07,29.99,11,5,37,0.00
2013-10-5,88,79,71,74,72,70,98,80,57,30.05,29.94,15,5,51,0.00
2013-10-6,88,80,73,76,74,71,99,82,56,29.97,29.87,9,4,32,0.00
2013-10-7,89,78,73,76,73,72,98,87,58,29.91,29.81,14,6,45,0.00
2013-10-8,88,80,75,78,74,71,99,82,61,29.94,29.85,11,7,45,0.00
2013-10-9,84,77,73,76,73,71,96,87,75,29.99,29.90,27,8,49,0.00
2013-10-10,86,78,71,74,72,70,98,83,60,30.01,29.94,11,7,21,0.00
2013-10-11,87,76,69,72,69,67,98,79,54,30.01,29.94,11,6,38,0.00
2013-10-12,86,76,69,72,70,68,99,80,55,30.03,29.95,17,4,68,0.00
2013-10-13,86,75,70,72,66,-100,98,78,51,30.05,29.96,11,5,43,0.00
2013-10-14,86,76,69,71,69,67,98,80,57,30.02,29.90,17,5,45,0.00
2013-10-15,86,76,70,73,71,70,99,84,59,29.95,29.86,9,5,31,0.00
2013-10-16,86,76,70,72,70,69,99,85,59,29.95,29.88,18,4,47,0.00
2013-10-17,86,76,70,74,71,69,99,86,59,29.96,29.88,8,4,36,0.00
2013-10-18,87,78,70,74,72,70,99,84,62,29.98,29.90,10,4,40,0.00
2013-10-19,89,80,71,76,73,71,99,80,57,29.96,29.87,9,5,44,0.00
2013-10-20,90,79,75,78,73,-100,99,85,58,29.95,29.87,13,4,44,0.00
2013-10-21,89,81,74,77,75,73,99,84,64,30.00,29.89,10,4,15,0.00
2013-10-22,90,81,75,77,75,74,98,83,60,29.96,29.82,11,6,47,0.00
2013-10-23,86,79,75,77,74,69,97,83,66,29.95,29.82,13,7,19,0.00
2013-10-24,80,74,70,70,66,63,88,75,63,30.09,29.93,10,7,40,0.00
2013-10-25,82,73,67,68,65,63,92,76,52,30.14,30.07,14,8,38,0.00
2013-10-26,83,72,65,67,64,63,96,79,51,30.14,30.04,10,6,52,0.00
2013-10-27,83,70,64,67,61,-100,96,76,54,30.09,30.01,11,6,38,0.00
2013-10-28,84,72,65,68,63,-100,99,80,49,30.13,30.04,10,5,34,0.00
2013-10-29,84,74,66,70,67,64,99,81,59,30.17,30.08,13,6,23,0.00
2013-10-30,84,77,67,68,67,65,94,71,55,30.18,30.08,14,8,121,0.00
2013-10-31,84,78,73,72,69,65,88,75,63,30.11,29.99,13,8,51,0.00
2013-11-1,87,78,70,74,72,70,98,83,61,30.01,29.87,11,5,21,0.00
2013-11-2,87,77,70,73,71,65,99,83,50,29.93,29.79,13,6,21,0.00
2013-11-3,81,72,67,65,60,-100,86,68,56,30.02,29.90,18,11,28,0.00
2013-11-4,80,73,65,67,63,59,88,70,55,30.07,30.00,18,11,29,0.00
2013-11-5,81,78,75,70,68,64,77,71,64,30.08,30.01,19,14,38,0.00
2013-11-6,82,77,69,69,68,67,96,74,59,30.06,29.98,14,9,27,0.00
2013-11-7,86,75,68,73,69,67,99,85,53,30.01,29.91,9,5,13,0.00
2013-11-8,84,74,68,72,70,68,98,87,60,30.03,29.93,15,9,24,0.00
2013-11-9,77,74,73,72,68,-100,96,85,79,30.11,30.01,14,11,27,0.00
2013-11-10,83,76,71,72,70,69,96,81,69,30.12,30.04,12,8,19,0.00
2013-11-11,83,75,68,71,69,66,98,82,66,30.11,30.04,13,7,22,0.00
2013-11-12,83,74,68,71,68,66,98,81,59,30.07,29.96,10,5,18,0.00
2013-11-13,75,71,68,68,63,54,89,77,62,30.20,29.99,19,13,35,0.00
2013-11-14,76,71,67,60,57,54,67,61,53,30.23,30.13,17,12,30,0.00
2013-11-15,80,75,71,69,66,60,76,72,67,30.14,30.03,16,10,26,0.00
2013-11-16,78,74,71,72,66,-100,93,79,71,30.09,30.01,15,7,32,0.00
2013-11-17,83,77,71,73,71,68,96,80,67,30.07,30.00,13,7,19,0.00
2013-11-18,83,75,69,73,71,69,99,88,69,30.03,29.91,6,3,10,0.00
2013-11-19,84,75,71,74,72,70,98,90,66,29.93,29.85,10,4,15,0.00
2013-11-20,84,75,68,74,71,68,99,87,66,30.05,29.92,10,5,16,0.00
2013-11-21,81,75,71,73,72,70,98,88,72,30.13,30.04,11,6,21,0.00
2013-11-22,81,77,72,71,70,68,87,78,68,30.15,30.07,15,10,23,0.00
2013-11-23,81,74,70,71,66,-100,94,80,68,30.08,29.97,12,7,19,0.00
2013-11-24,81,72,67,70,67,63,99,84,64,30.14,29.98,26,9,33,0.00
2013-11-25,74,72,70,67,64,59,87,75,64,30.19,30.06,17,14,29,0.00
2013-11-26,83,76,71,74,72,68,95,85,72,30.06,29.82,16,12,28,0.00
2013-11-27,76,71,58,74,66,52,98,82,58,30.11,29.78,17,11,39,0.00
2013-11-28,73,61,48,59,53,46,93,76,51,30.25,30.11,16,10,25,0.00
2013-11-29,76,68,57,62,59,56,97,74,54,30.26,30.19,17,10,27,0.00
2013-11-30,78,66,60,69,60,-100,98,84,60,30.21,30.11,16,8,29,0.00
2013-12-1,75,67,61,70,66,60,99,95,83,30.11,29.95,12,5,20,0.00
2013-12-2,72,66,61,67,64,61,99,92,71,29.95,29.83,11,6,17,0.00
2013-12-3,78,69,61,65,63,60,99,83,55,30.00,29.90,7,4,12,0.00
2013-12-4,82,70,62,69,66,62,99,86,61,30.09,29.99,8,4,14,0.00
2013-12-5,82,72,63,71,68,63,99,85,63,30.17,30.08,12,6,18,0.00
2013-12-6,82,75,67,70,68,66,96,81,62,30.18,30.09,14,7,23,0.00
2013-12-7,82,70,64,72,66,-100,99,88,61,30.22,30.14,10,4,19,0.00
2013-12-8,82,75,67,70,68,67,96,79,62,30.21,30.12,13,7,20,0.00
2013-12-9,83,76,68,70,68,62,97,75,50,30.20,30.10,14,7,42,0.00
2013-12-10,83,75,67,72,70,66,98,85,65,30.16,30.07,10,4,42,0.00
2013-12-11,75,70,67,70,69,67,99,96,85,30.18,30.12,6,3,8,0.00
2013-12-12,78,70,67,69,68,67,99,95,73,30.19,30.13,14,6,20,0.00
2013-12-13,68,68,68,68,68,68,99,99,99,30.15,30.15,4,4,6,0.00
2013-12-20,79,76,73,68,67,66,84,75,67,30.16,30.10,11,8,33,0.00
2013-12-21,82,75,73,72,68,-100,87,79,67,30.15,30.06,14,9,24,0.00
2013-12-22,83,78,75,73,71,70,91,80,66,30.15,30.07,17,10,25,0.00
2013-12-23,83,77,71,73,71,69,95,83,68,30.17,30.10,13,8,20,0.00
2013-12-24,80,70,66,72,66,59,99,87,67,30.17,30.09,17,7,27,0.00
2013-12-25,77,72,68,66,64,62,90,77,66,30.17,30.10,15,10,24,0.00
2013-12-26,78,73,70,69,68,65,91,82,73,30.16,30.06,11,7,19,0.00
2013-12-27,81,73,67,71,68,66,98,84,69,30.19,30.09,12,7,21,0.00
2013-12-28,79,74,71,72,67,-100,92,81,74,30.17,30.03,15,10,23,0.00
2013-12-29,81,76,72,74,72,71,98,88,74,30.03,29.92,17,9,40,0.00
2013-12-30,76,71,67,72,64,-100,100,92,75,30.14,29.98,12,6,48,0.00
2013-12-31,78,71,66,66,63,62,89,76,61,30.22,30.11,18,10,43,0.00
2014-1-1,80,74,71,72,69,63,96,83,72,30.20,30.04,12,9,41,0.00
2014-1-2,83,75,68,71,68,67,98,81,58,30.04,29.86,17,8,45,0.00